Latest Weather Observations for Kadina

IDS60801

Issued at 10:02 pm CST Tuesday 26 September 2017 (issued every 30 minutes, with the page automatically refreshed every 10 minutes)

About weather observations | Map of weather stations | Latest weather observations for SA | Other Formats
Station Details ID: 022050 Name: KADINA AWS Lat: -33.97 Lon: 137.66 Height: 41.14 m
Data from the previous 72 hours. | See also: Recent months at Kadina
Date/Time
CST
Temp
°C
App
Temp
°C
Dew
Point
°C
Rel
Hum
%
Delta-T
°C
Wind Press
QNH
hPa
Press
MSL
hPa
Rain since
9am
mm
Dir  Spd
km/h
Gust
km/h
Spd
kts
Gust
kts
26/10:00pm 14.2 11.0 7.0 62 3.5 E 13 13 7 7 1005.3 1005.3 0.0
26/09:30pm 13.8 10.7 7.1 64 3.3 E 13 13 7 7 1005.4 1005.4 0.0
26/09:00pm 13.4 9.9 7.0 65 3.1 ESE 15 17 8 9 1005.5 1005.5 0.0
26/08:30pm 14.7 11.5 6.8 59 3.9 ESE 13 17 7 9 1005.5 1005.5 0.0
26/08:00pm 15.8 11.8 6.8 55 4.4 SE 17 20 9 11 1005.3 1005.3 0.0
26/07:30pm 16.7 12.7 6.8 52 4.9 SE 17 20 9 11 1005.3 1005.3 0.0
26/07:00pm 17.9 14.0 7.3 50 5.3 SE 17 19 9 10 1005.2 1005.2 0.0
26/06:30pm 20.1 16.1 6.8 42 6.8 SE 17 20 9 11 1005.1 1005.1 0.0
26/06:00pm 23.8 19.2 5.7 31 9.2 E 19 26 10 14 1004.8 1004.7 0.0
26/05:30pm 25.0 19.6 6.2 30 9.7 ESE 24 35 13 19 1004.7 1004.6 0.0
26/05:00pm 26.9 22.4 6.9 28 10.6 E 20 26 11 14 1004.6 1004.5 0.0
26/04:30pm 29.3 24.1 2.5 18 13.4 NE 19 26 10 14 1004.5 1004.4 0.0
26/04:00pm 29.2 24.4 2.5 18 13.3 NE 17 26 9 14 1004.9 1004.9 0.0
26/03:30pm 29.2 24.9 3.2 19 13.1 NNE 15 20 8 11 1005.3 1005.3 0.0
26/03:00pm 28.3 23.5 2.5 19 12.8 NNE 17 24 9 13 1005.9 1005.9 0.0
26/02:30pm 27.8 22.9 4.2 22 12.0 NW 19 26 10 14 1006.4 1006.4 0.0
26/02:00pm 27.2 22.2 6.6 27 10.9 E 22 30 12 16 1006.6 1006.6 0.0
26/01:30pm 27.5 21.8 6.8 27 11.0 ENE 26 35 14 19 1007.1 1007.1 0.0
26/01:00pm 26.4 20.6 6.4 28 10.5 ENE 26 35 14 19 1008.0 1008.0 0.0
26/12:30pm 23.9 18.0 5.8 31 9.2 ENE 26 37 14 20 1008.9 1008.9 0.0
26/12:00pm 22.7 17.1 7.3 37 8.0 E 26 35 14 19 1009.7 1009.7 0.0
26/11:30am 21.4 15.7 6.9 39 7.4 ENE 26 41 14 22 1010.4 1010.4 0.0
26/11:00am 21.3 16.2 7.5 41 7.1 ENE 24 39 13 21 1011.1 1011.1 0.0
26/10:30am 19.2 13.5 8.2 49 5.7 E 28 37 15 20 1011.4 1011.4 0.0
26/10:00am 18.3 12.4 7.7 50 5.4 E 28 39 15 21 1011.5 1011.5 0.0
26/09:30am 16.1 9.8 7.6 57 4.3 E 30 37 16 20 1011.3 1011.3 0.0
26/09:00am 15.4 9.9 7.4 59 4.0 ESE 26 32 14 17 1012.7 1012.7 0.0
26/08:30am 15.2 10.1 7.7 61 3.7 E 24 32 13 17 1012.5 1012.5 0.0
26/08:00am 12.8 8.2 8.1 73 2.3 E 22 28 12 15 1012.3 1012.3 0.0
26/07:30am 10.9 6.1 7.4 79 1.7 ESE 22 30 12 16 1012.4 1012.4 0.0
26/07:00am 9.8 5.4 7.2 84 1.2 ESE 20 28 11 15 1012.8 1012.8 0.0
26/06:30am 9.3 4.4 7.1 86 1.0 E 22 28 12 15 1012.4 1012.4 0.0
26/06:00am 9.1 4.6 7.1 87 0.9 ESE 20 26 11 14 1012.7 1012.7 0.0
26/05:30am 9.1 4.8 7.2 88 0.9 ESE 19 24 10 13 1013.2 1013.2 0.0
26/05:00am 8.7 4.4 7.0 89 0.8 ESE 19 24 10 13 1012.6 1012.6 0.0
26/04:30am 8.5 3.6 6.8 89 0.8 ESE 22 28 12 15 1012.1 1012.1 0.0
26/04:00am 8.6 4.1 6.9 89 0.8 ESE 20 28 11 15 1012.2 1012.2 0.0
26/03:30am 8.5 4.2 7.0 90 0.7 ESE 19 24 10 13 1012.2 1012.2 0.0
26/03:00am 8.6 4.3 7.1 90 0.7 E 19 22 10 12 1012.1 1012.1 0.0
26/02:30am 8.8 3.9 7.1 89 0.8 ESE 22 26 12 14 1012.3 1012.3 0.0
26/02:00am 9.7 5.5 7.6 87 1.0 ESE 19 22 10 12 1013.6 1013.6 0.0
26/01:30am 9.8 5.8 8.1 89 0.8 ESE 19 22 10 12 1014.2 1014.2 0.0
26/01:00am 9.8 5.9 8.6 92 0.6 ESE 19 24 10 13 1014.7 1014.7 0.0
26/12:30am 9.5 6.0 8.6 94 0.4 ESE 17 20 9 11 1015.0 1015.0 0.0
26/12:00am 9.0 5.3 8.1 94 0.4 ESE 17 20 9 11 1015.1 1015.1 0.0
 
Date/Time
CST
Temp
°C
App
Temp
°C
Dew
Point
°C
Rel
Hum
%
Delta-T
°C
Wind Press
QNH
hPa
Press
MSL
hPa
Rain since
9am
mm
Dir  Spd
km/h
Gust
km/h
Spd
kts
Gust
kts
25/11:30pm 8.7 5.0 7.8 94 0.4 ESE 17 20 9 11 1015.3 1015.3 0.0
25/11:00pm 8.0 4.5 7.1 94 0.4 SE 15 19 8 10 1015.4 1015.4 0.0
25/10:30pm 7.4 4.1 6.3 93 0.5 SE 13 15 7 8 1015.5 1015.5 0.0
25/10:00pm 7.9 4.7 6.7 92 0.6 ESE 13 17 7 9 1015.5 1015.5 0.0
25/09:30pm 8.5 5.4 7.1 91 0.7 ESE 13 17 7 9 1015.3 1015.3 0.0
25/09:00pm 9.2 5.8 7.5 89 0.8 SE 15 19 8 10 1015.2 1015.2 0.0
25/08:30pm 9.7 5.9 7.6 87 1.0 SE 17 22 9 12 1015.1 1015.1 0.0
25/08:00pm 10.3 6.6 8.1 86 1.1 SE 17 20 9 11 1014.9 1014.9 0.0
25/07:30pm 10.9 7.3 8.5 85 1.2 SE 17 20 9 11 1014.5 1014.5 0.0
25/07:00pm 11.9 8.4 8.9 82 1.5 SE 17 20 9 11 1014.1 1014.1 0.0
25/06:30pm 13.3 9.9 9.0 75 2.2 SE 17 20 9 11 1013.9 1013.9 0.0
25/06:00pm 15.0 12.0 9.4 69 2.9 SE 15 20 8 11 1013.5 1013.5 0.0
25/05:30pm 16.9 13.6 9.6 62 3.8 S 17 32 9 17 1013.3 1013.3 0.0
25/05:00pm 17.8 14.2 8.4 54 4.8 S 17 24 9 13 1013.1 1013.1 0.0
25/04:30pm 17.8 14.3 8.6 55 4.8 SSW 17 30 9 16 1013.0 1013.0 0.0
25/04:00pm 18.2 14.1 8.7 54 4.9 SW 20 28 11 15 1012.9 1012.9 0.0
25/03:30pm 17.9 13.9 8.2 53 5.0 WSW 19 24 10 13 1013.0 1013.0 0.0
25/03:00pm 18.1 13.9 8.4 53 5.0 SW 20 30 11 16 1013.1 1013.1 0.0
25/02:30pm 17.9 14.1 7.6 51 5.2 SW 17 26 9 14 1013.4 1013.4 0.0
25/02:00pm 17.8 14.4 7.8 52 5.1 SW 15 22 8 12 1013.6 1013.6 0.0
25/01:30pm 17.9 13.7 7.6 51 5.2 SW 19 24 10 13 1014.2 1014.2 0.0
25/01:00pm 17.6 14.2 7.6 52 5.1 SW 15 24 8 13 1014.2 1014.2 0.0
25/12:30pm 16.8 12.9 7.2 53 4.8 WSW 17 28 9 15 1014.5 1014.5 0.0
25/12:00pm 16.6 12.8 7.5 55 4.6 WSW 17 26 9 14 1014.6 1014.6 0.0
25/11:30am 16.5 12.4 7.7 56 4.4 WNW 19 24 10 13 1014.7 1014.7 0.0
25/11:00am 16.1 13.1 7.8 58 4.2 WSW 13 20 7 11 1014.8 1014.8 0.0
25/10:30am 15.6 13.3 7.4 58 4.1 W 9 17 5 9 1014.6 1014.6 0.0
25/10:00am 15.8 13.2 7.8 59 4.0 WSW 11 17 6 9 1014.7 1014.7 0.0
25/09:30am 15.0 11.9 7.1 59 3.9 WNW 13 20 7 11 1014.5 1014.5 0.0
25/09:00am 14.5 10.4 8.0 65 3.2 NW 19 24 10 13 1014.5 1014.5 0.0
25/08:30am 13.7 9.6 7.7 67 3.0 NW 19 24 10 13 1014.4 1014.4 0.0
25/08:00am 12.7 8.3 7.6 71 2.5 WNW 20 28 11 15 1014.1 1014.1 0.0
25/07:30am 8.7 8.2 7.8 94 0.4 CALM 0 0 0 0 1013.7 1013.7 0.0
25/07:00am 6.4 4.6 5.4 93 0.4 NW 4 9 2 5 1013.4 1013.4 0.0
25/06:30am 4.7 1.6 3.7 93 0.4 NE 9 11 5 6 1012.4 1012.4 0.0
25/06:00am 3.9 0.3 2.7 92 0.5 ENE 11 13 6 7 1012.3 1012.3 0.0
25/05:30am 5.1 2.4 3.8 91 0.5 NE 7 11 4 6 1011.8 1011.8 0.0
25/05:00am 6.5 3.3 5.0 90 0.7 ENE 11 17 6 9 1011.2 1011.2 0.0
25/04:30am 7.6 6.3 5.9 89 0.8 ESE 2 7 1 4 1010.4 1010.4 0.0
25/04:00am 8.1 5.9 6.1 87 0.9 NNE 7 11 4 6 1010.7 1010.7 0.0
25/03:30am 9.8 5.9 7.1 83 1.3 WSW 17 20 9 11 1010.5 1010.5 0.0
25/03:00am 9.9 6.4 7.0 82 1.4 WSW 15 17 8 9 1010.6 1010.6 0.0
25/02:30am 10.4 7.0 7.5 82 1.4 WSW 15 20 8 11 1010.8 1010.8 0.0
25/02:00am 10.5 7.2 7.9 84 1.3 WSW 15 20 8 11 1010.9 1010.9 0.0
25/01:30am 10.9 7.9 7.6 80 1.6 W 13 19 7 10 1011.1 1011.1 0.0
25/01:00am 11.3 7.7 8.2 81 1.5 W 17 20 9 11 1011.1 1011.1 0.0
25/12:30am 11.8 8.1 8.1 78 1.8 W 17 22 9 12 1011.3 1011.3 0.0
25/12:00am 12.3 9.1 8.4 77 1.9 W 15 22 8 12 1011.2 1011.2 0.0
 
Date/Time
CST
Temp
°C
App
Temp
°C
Dew
Point
°C
Rel
Hum
%
Delta-T
°C
Wind Press
QNH
hPa
Press
MSL
hPa
Rain since
9am
mm
Dir  Spd
km/h
Gust
km/h
Spd
kts
Gust
kts
24/11:30pm 12.0 8.3 7.9 76 2.0 W 17 22 9 12 1011.3 1011.3 0.0
24/11:00pm 12.1 8.3 7.4 73 2.3 WSW 17 22 9 12 1011.4 1011.4 0.0
24/10:30pm 12.5 8.1 7.6 72 2.4 W 20 32 11 17 1011.4 1011.4 0.0
24/10:00pm 12.9 7.5 7.8 71 2.5 W 26 35 14 19 1011.3 1011.3 0.0
24/09:30pm 13.0 8.1 7.0 67 2.9 W 22 32 12 17 1011.1 1011.1 0.0
24/09:00pm 13.3 7.9 6.4 63 3.3 WSW 24 35 13 19 1010.8 1010.8 0.0
24/08:30pm 13.4 8.6 7.4 67 2.9 WSW 22 33 12 18 1010.3 1010.3 0.0
24/08:00pm 13.5 9.0 8.6 72 2.5 WSW 22 30 12 16 1009.8 1009.8 0.0
24/07:30pm 13.8 8.2 8.6 71 2.6 WSW 28 33 15 18 1009.4 1009.4 0.0
24/07:00pm 14.0 9.0 8.2 68 2.9 WSW 24 35 13 19 1009.0 1009.0 0.0
24/06:30pm 14.4 9.4 7.9 65 3.2 WSW 24 33 13 18 1008.7 1008.7 0.0
24/06:00pm 14.9 9.3 7.0 59 3.9 WSW 26 35 14 19 1007.9 1007.9 0.0
24/05:30pm 15.6 8.7 6.6 55 4.4 WSW 32 44 17 24 1007.6 1007.6 0.0
24/05:00pm 16.4 9.3 6.2 51 5.0 WSW 33 44 18 24 1007.3 1007.3 0.0
24/04:30pm 17.1 9.9 5.7 47 5.5 WSW 33 48 18 26 1007.1 1007.1 0.0
24/04:00pm 17.5 9.8 5.4 45 5.9 WSW 35 50 19 27 1006.8 1006.8 0.0
24/03:30pm 17.8 8.9 5.1 43 6.1 WSW 41 54 22 29 1006.6 1006.6 0.0
24/03:01pm 18.1 10.3 4.7 41 6.4 WSW 35 54 19 29 1006.6 1006.6 0.0
24/03:00pm 18.5 10.8 5.4 42 6.4 WSW 35 48 19 26 1006.6 1006.6 0.0
24/02:30pm 18.9 11.9 7.0 46 6.0 WSW 33 48 18 26 1006.6 1006.6 0.0
24/02:00pm 18.1 11.6 8.1 52 5.1 WSW 32 41 17 22 1006.6 1006.6 0.0
24/01:30pm 18.9 12.8 8.3 50 5.5 W 30 39 16 21 1006.6 1006.6 0.0
24/01:00pm 18.5 12.9 7.3 48 5.7 W 26 35 14 19 1006.5 1006.5 0.0
24/12:30pm 18.7 12.4 7.5 48 5.7 WNW 30 41 16 22 1006.7 1006.7 0.0
24/12:00pm 17.9 11.2 7.3 50 5.4 WNW 32 43 17 23 1007.0 1007.0 0.0
24/11:30am 17.5 10.5 7.0 50 5.3 WNW 33 48 18 26 1007.2 1007.2 0.0
24/11:00am 17.6 10.0 7.4 51 5.1 WNW 37 48 20 26 1007.3 1007.3 0.0
24/10:30am 16.5 8.4 7.2 54 4.6 WNW 39 48 21 26 1007.5 1007.5 0.0
24/10:00am 16.2 9.3 7.2 55 4.5 NW 33 48 18 26 1007.5 1007.5 0.0
24/09:30am 15.5 9.4 9.6 68 3.1 NW 32 39 17 21 1007.3 1007.3 0.0
24/09:00am 15.0 8.6 8.7 66 3.2 NW 32 43 17 23 1007.1 1007.1 0.0
24/08:30am 14.8 9.4 9.6 71 2.7 NW 28 39 15 21 1007.0 1007.0 0.0
24/08:00am 14.1 8.6 9.1 72 2.5 NW 28 35 15 19 1006.8 1006.8 0.0
24/07:30am 13.7 8.7 9.4 75 2.2 NW 26 33 14 18 1006.6 1006.6 0.0
24/07:00am 13.1 8.4 9.2 77 2.0 NW 24 35 13 19 1006.3 1006.3 0.0
24/06:30am 13.2 8.5 9.1 76 2.1 NW 24 32 13 17 1005.9 1005.9 0.0
24/06:00am 13.5 7.5 8.8 73 2.4 WNW 30 39 16 21 1005.5 1005.5 0.0
24/05:30am 13.0 7.9 9.1 77 2.0 WNW 26 35 14 19 1005.4 1005.4 0.0
24/05:00am 12.9 6.9 8.8 76 2.1 WNW 30 39 16 21 1005.1 1005.1 0.0
24/04:30am 12.9 7.4 9.2 78 1.9 WNW 28 35 15 19 1004.9 1004.9 0.0
24/04:00am 13.1 7.7 9.4 78 1.9 WNW 28 39 15 21 1004.8 1004.7 0.0
24/03:30am 13.4 7.2 9.5 77 2.0 WNW 32 43 17 23 1004.5 1004.4 0.0
24/03:00am 13.4 7.2 9.5 77 2.0 WNW 32 41 17 22 1004.5 1004.4 0.0
24/02:30am 13.6 7.8 9.6 77 2.1 W 30 39 16 21 1004.5 1004.4 0.0
24/02:00am 14.0 8.0 10.0 77 2.1 W 32 44 17 24 1004.8 1004.7 0.0
24/01:30am 14.1 8.0 9.7 75 2.3 WNW 32 39 17 21 1005.1 1005.1 0.0
24/01:00am 14.2 8.9 9.8 75 2.3 WNW 28 43 15 23 1005.3 1005.3 0.0
24/12:30am 14.3 9.3 9.5 73 2.5 WNW 26 32 14 17 1005.5 1005.5 0.0
24/12:00am 14.8 9.6 8.7 67 3.1 WNW 26 35 14 19 1005.8 1005.8 0.0
 
Date/Time
CST
Temp
°C
App
Temp
°C
Dew
Point
°C
Rel
Hum
%
Delta-T
°C
Wind Press
QNH
hPa
Press
MSL
hPa
Rain since
9am
mm
Dir  Spd
km/h
Gust
km/h
Spd
kts
Gust
kts
23/11:30pm 14.9 9.1 7.9 63 3.5 WNW 28 35 15 19 1005.7 1005.7 0.0
23/11:00pm 15.2 9.4 8.0 62 3.6 NW 28 46 15 25 1005.8 1005.8 0.0
23/10:55pm 15.1 9.3 8.1 63 3.5 WNW 28 46 15 25 1005.8 1005.8 0.0
23/10:51pm 14.9 9.2 8.2 64 3.4 WNW 28 39 15 21 1005.9 1005.9 0.0
23/10:30pm 11.9 9.0 9.6 86 1.2 NW 15 19 8 10 1006.1 1006.1 0.0

Other Formats:

Comma delimited format used in spreadsheet applications
http://www.bom.gov.au/fwo/IDS60801/IDS60801.94685.axf

JavaScript Object Notation format (JSON) in row-major order
http://www.bom.gov.au/fwo/IDS60801/IDS60801.94685.json